sensor_id;sensor_type;location;lat;lon;timestamp;temperature;humidity
7030;DHT22;3556;53.500;10.176;2023-12-20T00:00:08;5.40;99.90
7030;DHT22;3556;53.500;10.176;2023-12-20T00:02:34;5.40;99.90
7030;DHT22;3556;53.500;10.176;2023-12-20T00:05:00;5.40;99.90
7030;DHT22;3556;53.500;10.176;2023-12-20T00:07:26;5.40;99.90
7030;DHT22;3556;53.500;10.176;2023-12-20T00:09:51;5.30;99.90
7030;DHT22;3556;53.500;10.176;2023-12-20T00:12:17;5.30;99.90
7030;DHT22;3556;53.500;10.176;2023-12-20T00:14:42;5.30;99.90
7030;DHT22;3556;53.500;10.176;2023-12-20T00:17:08;5.20;99.90
7030;DHT22;3556;53.500;10.176;2023-12-20T00:19:33;5.20;99.90
7030;DHT22;3556;53.500;10.176;2023-12-20T00:21:59;5.10;99.90
7030;DHT22;3556;53.500;10.176;2023-12-20T00:24:25;5.10;99.90
7030;DHT22;3556;53.500;10.176;2023-12-20T00:26:50;5.00;99.90
7030;DHT22;3556;53.500;10.176;2023-12-20T00:29:16;5.00;99.90
7030;DHT22;3556;53.500;10.176;2023-12-20T00:31:42;5.00;99.90
7030;DHT22;3556;53.500;10.176;2023-12-20T00:34:07;4.90;99.90
7030;DHT22;3556;53.500;10.176;2023-12-20T00:36:33;4.90;99.90
7030;DHT22;3556;53.500;10.176;2023-12-20T00:38:58;4.80;99.90
7030;DHT22;3556;53.500;10.176;2023-12-20T00:41:24;4.80;99.90
7030;DHT22;3556;53.500;10.176;2023-12-20T00:43:50;4.70;99.90
7030;DHT22;3556;53.500;10.176;2023-12-20T00:46:16;4.70;99.90
7030;DHT22;3556;53.500;10.176;2023-12-20T00:48:41;4.70;99.90
7030;DHT22;3556;53.500;10.176;2023-12-20T00:51:07;4.70;99.90
7030;DHT22;3556;53.500;10.176;2023-12-20T00:53:33;4.70;99.90
7030;DHT22;3556;53.500;10.176;2023-12-20T00:55:59;4.70;99.90
7030;DHT22;3556;53.500;10.176;2023-12-20T00:58:24;4.70;99.90
7030;DHT22;3556;53.500;10.176;2023-12-20T01:00:50;4.80;99.90
7030;DHT22;3556;53.500;10.176;2023-12-20T01:03:16;4.90;99.90
7030;DHT22;3556;53.500;10.176;2023-12-20T01:05:42;4.90;99.90
7030;DHT22;3556;53.500;10.176;2023-12-20T01:08:07;5.00;99.90
7030;DHT22;3556;53.500;10.176;2023-12-20T01:10:33;5.10;99.90
7030;DHT22;3556;53.500;10.176;2023-12-20T01:12:58;5.20;99.90
7030;DHT22;3556;53.500;10.176;2023-12-20T01:15:24;5.20;99.90
7030;DHT22;3556;53.500;10.176;2023-12-20T01:17:49;5.20;99.90
7030;DHT22;3556;53.500;10.176;2023-12-20T01:20:15;5.30;99.90
7030;DHT22;3556;53.500;10.176;2023-12-20T01:22:40;5.30;99.90
7030;DHT22;3556;53.500;10.176;2023-12-20T01:25:08;5.30;99.90
7030;DHT22;3556;53.500;10.176;2023-12-20T01:27:34;5.30;99.90
7030;DHT22;3556;53.500;10.176;2023-12-20T01:29:59;5.20;99.90
7030;DHT22;3556;53.500;10.176;2023-12-20T01:32:25;5.20;99.90
7030;DHT22;3556;53.500;10.176;2023-12-20T01:34:50;5.10;99.90
7030;DHT22;3556;53.500;10.176;2023-12-20T01:37:16;5.10;99.90
7030;DHT22;3556;53.500;10.176;2023-12-20T01:39:42;5.00;99.90
7030;DHT22;3556;53.500;10.176;2023-12-20T01:42:08;5.00;99.90
7030;DHT22;3556;53.500;10.176;2023-12-20T01:44:33;5.00;99.90
7030;DHT22;3556;53.500;10.176;2023-12-20T01:46:59;4.90;99.90
7030;DHT22;3556;53.500;10.176;2023-12-20T01:49:25;4.90;99.90
7030;DHT22;3556;53.500;10.176;2023-12-20T01:51:51;4.80;99.90
7030;DHT22;3556;53.500;10.176;2023-12-20T01:54:17;4.80;99.90
7030;DHT22;3556;53.500;10.176;2023-12-20T01:56:44;4.80;99.90
7030;DHT22;3556;53.500;10.176;2023-12-20T01:59:10;4.80;99.90
7030;DHT22;3556;53.500;10.176;2023-12-20T02:01:36;4.80;99.90
7030;DHT22;3556;53.500;10.176;2023-12-20T02:04:02;4.70;99.90
7030;DHT22;3556;53.500;10.176;2023-12-20T02:06:30;4.70;99.90
7030;DHT22;3556;53.500;10.176;2023-12-20T02:08:57;4.80;99.90
7030;DHT22;3556;53.500;10.176;2023-12-20T02:11:24;4.80;99.90
7030;DHT22;3556;53.500;10.176;2023-12-20T02:13:50;4.80;99.90
7030;DHT22;3556;53.500;10.176;2023-12-20T02:16:16;4.90;99.90
7030;DHT22;3556;53.500;10.176;2023-12-20T02:18:43;4.90;99.90
7030;DHT22;3556;53.500;10.176;2023-12-20T02:21:10;4.90;99.90
7030;DHT22;3556;53.500;10.176;2023-12-20T02:23:35;4.90;99.90
7030;DHT22;3556;53.500;10.176;2023-12-20T02:26:02;4.90;99.90
7030;DHT22;3556;53.500;10.176;2023-12-20T02:28:28;4.90;99.90
7030;DHT22;3556;53.500;10.176;2023-12-20T02:30:53;4.90;99.90
7030;DHT22;3556;53.500;10.176;2023-12-20T02:33:19;4.90;99.90
7030;DHT22;3556;53.500;10.176;2023-12-20T02:35:45;4.80;99.90
7030;DHT22;3556;53.500;10.176;2023-12-20T02:38:10;4.80;99.90
7030;DHT22;3556;53.500;10.176;2023-12-20T02:40:36;4.80;99.90
7030;DHT22;3556;53.500;10.176;2023-12-20T02:43:02;4.90;99.90
7030;DHT22;3556;53.500;10.176;2023-12-20T02:45:27;4.90;99.90
7030;DHT22;3556;53.500;10.176;2023-12-20T02:47:53;4.90;99.90
7030;DHT22;3556;53.500;10.176;2023-12-20T02:50:18;4.90;99.90
7030;DHT22;3556;53.500;10.176;2023-12-20T02:52:47;5.00;99.90
7030;DHT22;3556;53.500;10.176;2023-12-20T02:55:13;5.00;99.90
7030;DHT22;3556;53.500;10.176;2023-12-20T02:57:38;5.00;99.90
7030;DHT22;3556;53.500;10.176;2023-12-20T03:00:08;5.00;99.90
7030;DHT22;3556;53.500;10.176;2023-12-20T03:02:34;5.00;99.90
7030;DHT22;3556;53.500;10.176;2023-12-20T03:05:00;5.00;99.90
7030;DHT22;3556;53.500;10.176;2023-12-20T03:07:26;5.00;99.90
7030;DHT22;3556;53.500;10.176;2023-12-20T03:09:51;5.00;99.90
7030;DHT22;3556;53.500;10.176;2023-12-20T03:12:17;5.00;99.90
7030;DHT22;3556;53.500;10.176;2023-12-20T03:14:43;5.00;99.90
7030;DHT22;3556;53.500;10.176;2023-12-20T03:17:09;5.00;99.90
7030;DHT22;3556;53.500;10.176;2023-12-20T03:19:35;5.00;99.90
7030;DHT22;3556;53.500;10.176;2023-12-20T03:22:00;5.00;99.90
7030;DHT22;3556;53.500;10.176;2023-12-20T03:24:26;5.00;99.90
7030;DHT22;3556;53.500;10.176;2023-12-20T03:26:52;4.90;99.90
7030;DHT22;3556;53.500;10.176;2023-12-20T03:29:18;5.00;99.90
7030;DHT22;3556;53.500;10.176;2023-12-20T03:31:43;5.00;99.90
7030;DHT22;3556;53.500;10.176;2023-12-20T03:34:09;5.10;99.90
7030;DHT22;3556;53.500;10.176;2023-12-20T03:36:34;5.10;99.90
7030;DHT22;3556;53.500;10.176;2023-12-20T03:39:00;5.10;99.90
7030;DHT22;3556;53.500;10.176;2023-12-20T03:41:25;5.10;99.90
7030;DHT22;3556;53.500;10.176;2023-12-20T03:43:51;5.10;99.90
7030;DHT22;3556;53.500;10.176;2023-12-20T03:46:17;5.20;99.90
7030;DHT22;3556;53.500;10.176;2023-12-20T03:48:42;5.20;99.90
7030;DHT22;3556;53.500;10.176;2023-12-20T03:51:08;5.20;99.90
7030;DHT22;3556;53.500;10.176;2023-12-20T03:53:34;5.20;99.90
7030;DHT22;3556;53.500;10.176;2023-12-20T03:55:59;5.20;99.90
7030;DHT22;3556;53.500;10.176;2023-12-20T03:58:25;5.20;99.90
7030;DHT22;3556;53.500;10.176;2023-12-20T04:00:50;5.20;99.90
7030;DHT22;3556;53.500;10.176;2023-12-20T04:03:16;5.30;99.90
7030;DHT22;3556;53.500;10.176;2023-12-20T04:05:42;5.30;99.90
7030;DHT22;3556;53.500;10.176;2023-12-20T04:08:09;5.30;99.90
7030;DHT22;3556;53.500;10.176;2023-12-20T04:10:35;5.30;99.90
7030;DHT22;3556;53.500;10.176;2023-12-20T04:13:01;5.30;99.90
7030;DHT22;3556;53.500;10.176;2023-12-20T04:15:26;5.40;99.90
7030;DHT22;3556;53.500;10.176;2023-12-20T04:17:52;5.30;99.90
7030;DHT22;3556;53.500;10.176;2023-12-20T04:20:17;5.30;99.90
7030;DHT22;3556;53.500;10.176;2023-12-20T04:22:43;5.40;99.90
7030;DHT22;3556;53.500;10.176;2023-12-20T04:25:09;5.40;99.90
7030;DHT22;3556;53.500;10.176;2023-12-20T04:27:35;5.40;99.90
7030;DHT22;3556;53.500;10.176;2023-12-20T04:30:00;5.50;99.90
7030;DHT22;3556;53.500;10.176;2023-12-20T04:32:26;5.50;99.90
7030;DHT22;3556;53.500;10.176;2023-12-20T04:34:51;5.50;99.90
7030;DHT22;3556;53.500;10.176;2023-12-20T04:37:17;5.50;99.90
7030;DHT22;3556;53.500;10.176;2023-12-20T04:39:43;5.50;99.90
7030;DHT22;3556;53.500;10.176;2023-12-20T04:42:08;5.50;99.90
7030;DHT22;3556;53.500;10.176;2023-12-20T04:44:34;5.50;99.90
7030;DHT22;3556;53.500;10.176;2023-12-20T04:47:00;5.50;99.90
7030;DHT22;3556;53.500;10.176;2023-12-20T04:49:25;5.50;99.90
7030;DHT22;3556;53.500;10.176;2023-12-20T04:51:51;5.50;99.90
7030;DHT22;3556;53.500;10.176;2023-12-20T04:54:16;5.50;99.90
7030;DHT22;3556;53.500;10.176;2023-12-20T04:56:42;5.50;99.90
7030;DHT22;3556;53.500;10.176;2023-12-20T04:59:08;5.50;99.90
7030;DHT22;3556;53.500;10.176;2023-12-20T05:01:33;5.50;99.90
7030;DHT22;3556;53.500;10.176;2023-12-20T05:03:59;5.50;99.90
7030;DHT22;3556;53.500;10.176;2023-12-20T05:06:25;5.50;99.90
7030;DHT22;3556;53.500;10.176;2023-12-20T05:08:50;5.50;99.90
7030;DHT22;3556;53.500;10.176;2023-12-20T05:11:16;5.60;99.90
7030;DHT22;3556;53.500;10.176;2023-12-20T05:13:42;5.60;99.90
7030;DHT22;3556;53.500;10.176;2023-12-20T05:16:08;5.70;99.90
7030;DHT22;3556;53.500;10.176;2023-12-20T05:18:34;5.70;99.90
7030;DHT22;3556;53.500;10.176;2023-12-20T05:21:00;5.70;99.90
7030;DHT22;3556;53.500;10.176;2023-12-20T05:23:25;5.70;99.90
7030;DHT22;3556;53.500;10.176;2023-12-20T05:25:51;5.70;99.90
7030;DHT22;3556;53.500;10.176;2023-12-20T05:28:17;5.70;99.90
7030;DHT22;3556;53.500;10.176;2023-12-20T05:30:42;5.80;99.90
7030;DHT22;3556;53.500;10.176;2023-12-20T05:33:08;5.80;99.90
7030;DHT22;3556;53.500;10.176;2023-12-20T05:35:34;5.80;99.90
7030;DHT22;3556;53.500;10.176;2023-12-20T05:38:00;5.80;99.90
7030;DHT22;3556;53.500;10.176;2023-12-20T05:40:26;5.80;99.90
7030;DHT22;3556;53.500;10.176;2023-12-20T05:42:51;5.80;99.90
7030;DHT22;3556;53.500;10.176;2023-12-20T05:45:17;5.80;99.90
7030;DHT22;3556;53.500;10.176;2023-12-20T05:47:42;5.80;99.90
7030;DHT22;3556;53.500;10.176;2023-12-20T05:50:08;5.80;99.90
7030;DHT22;3556;53.500;10.176;2023-12-20T05:52:34;5.90;99.90
7030;DHT22;3556;53.500;10.176;2023-12-20T05:55:00;5.90;99.90
7030;DHT22;3556;53.500;10.176;2023-12-20T05:57:27;5.90;99.90
7030;DHT22;3556;53.500;10.176;2023-12-20T05:59:52;5.90;99.90
7030;DHT22;3556;53.500;10.176;2023-12-20T06:02:18;5.90;99.90
7030;DHT22;3556;53.500;10.176;2023-12-20T06:04:44;6.00;99.90
7030;DHT22;3556;53.500;10.176;2023-12-20T06:07:12;5.90;99.90
7030;DHT22;3556;53.500;10.176;2023-12-20T06:09:38;5.90;99.90
7030;DHT22;3556;53.500;10.176;2023-12-20T06:12:04;5.90;99.90
7030;DHT22;3556;53.500;10.176;2023-12-20T06:14:30;5.90;99.90
7030;DHT22;3556;53.500;10.176;2023-12-20T06:16:56;5.90;99.90
7030;DHT22;3556;53.500;10.176;2023-12-20T06:19:22;5.90;99.90
7030;DHT22;3556;53.500;10.176;2023-12-20T06:21:48;5.90;99.90
7030;DHT22;3556;53.500;10.176;2023-12-20T06:24:13;5.90;99.90
7030;DHT22;3556;53.500;10.176;2023-12-20T06:26:39;5.90;99.90
7030;DHT22;3556;53.500;10.176;2023-12-20T06:29:05;5.90;99.90
7030;DHT22;3556;53.500;10.176;2023-12-20T06:31:30;5.80;99.90
7030;DHT22;3556;53.500;10.176;2023-12-20T06:33:58;5.80;99.90
7030;DHT22;3556;53.500;10.176;2023-12-20T06:36:25;5.80;99.90
7030;DHT22;3556;53.500;10.176;2023-12-20T06:38:51;5.80;99.90
7030;DHT22;3556;53.500;10.176;2023-12-20T06:41:17;5.80;99.90
7030;DHT22;3556;53.500;10.176;2023-12-20T06:43:42;5.90;99.90
7030;DHT22;3556;53.500;10.176;2023-12-20T06:46:08;5.90;99.90
7030;DHT22;3556;53.500;10.176;2023-12-20T06:48:34;5.90;99.90
7030;DHT22;3556;53.500;10.176;2023-12-20T06:51:00;5.90;99.90
7030;DHT22;3556;53.500;10.176;2023-12-20T06:53:27;5.90;99.90
7030;DHT22;3556;53.500;10.176;2023-12-20T06:55:53;5.90;99.90
7030;DHT22;3556;53.500;10.176;2023-12-20T06:58:19;5.90;99.90
7030;DHT22;3556;53.500;10.176;2023-12-20T07:00:44;5.90;99.90
7030;DHT22;3556;53.500;10.176;2023-12-20T07:03:10;5.80;99.90
7030;DHT22;3556;53.500;10.176;2023-12-20T07:05:35;5.90;99.90
7030;DHT22;3556;53.500;10.176;2023-12-20T07:08:01;5.80;99.90
7030;DHT22;3556;53.500;10.176;2023-12-20T07:10:27;5.90;99.90
7030;DHT22;3556;53.500;10.176;2023-12-20T07:12:52;5.80;99.90
7030;DHT22;3556;53.500;10.176;2023-12-20T07:15:21;5.80;99.90
7030;DHT22;3556;53.500;10.176;2023-12-20T07:17:46;5.90;99.90
7030;DHT22;3556;53.500;10.176;2023-12-20T07:20:12;5.80;99.90
7030;DHT22;3556;53.500;10.176;2023-12-20T07:22:38;5.80;99.90
7030;DHT22;3556;53.500;10.176;2023-12-20T07:25:04;5.80;99.90
7030;DHT22;3556;53.500;10.176;2023-12-20T07:27:30;5.80;99.90
7030;DHT22;3556;53.500;10.176;2023-12-20T07:29:56;5.80;99.90
7030;DHT22;3556;53.500;10.176;2023-12-20T07:32:21;5.80;99.90
7030;DHT22;3556;53.500;10.176;2023-12-20T07:34:48;5.80;99.90
7030;DHT22;3556;53.500;10.176;2023-12-20T07:37:13;5.80;99.90
7030;DHT22;3556;53.500;10.176;2023-12-20T07:39:40;5.80;99.90
7030;DHT22;3556;53.500;10.176;2023-12-20T07:42:06;5.90;99.90
7030;DHT22;3556;53.500;10.176;2023-12-20T07:44:32;5.90;99.90
7030;DHT22;3556;53.500;10.176;2023-12-20T07:46:57;6.00;99.90
7030;DHT22;3556;53.500;10.176;2023-12-20T07:49:23;6.00;99.90
7030;DHT22;3556;53.500;10.176;2023-12-20T07:51:49;6.10;99.90
7030;DHT22;3556;53.500;10.176;2023-12-20T07:54:15;6.10;99.90
7030;DHT22;3556;53.500;10.176;2023-12-20T07:56:41;6.10;99.90
7030;DHT22;3556;53.500;10.176;2023-12-20T07:59:07;6.10;99.90
7030;DHT22;3556;53.500;10.176;2023-12-20T08:01:32;6.10;99.90
7030;DHT22;3556;53.500;10.176;2023-12-20T08:03:58;6.20;99.90
7030;DHT22;3556;53.500;10.176;2023-12-20T08:06:23;6.20;99.90
7030;DHT22;3556;53.500;10.176;2023-12-20T08:08:49;6.20;99.90
7030;DHT22;3556;53.500;10.176;2023-12-20T08:11:15;6.30;99.90
7030;DHT22;3556;53.500;10.176;2023-12-20T08:13:40;6.30;99.90
7030;DHT22;3556;53.500;10.176;2023-12-20T08:16:06;6.30;99.90
7030;DHT22;3556;53.500;10.176;2023-12-20T08:18:31;6.30;99.90
7030;DHT22;3556;53.500;10.176;2023-12-20T08:20:57;6.30;99.90
7030;DHT22;3556;53.500;10.176;2023-12-20T08:23:23;6.30;99.90
7030;DHT22;3556;53.500;10.176;2023-12-20T08:25:49;6.30;99.90
7030;DHT22;3556;53.500;10.176;2023-12-20T08:28:15;6.40;99.90
7030;DHT22;3556;53.500;10.176;2023-12-20T08:30:41;6.40;99.90
7030;DHT22;3556;53.500;10.176;2023-12-20T08:33:06;6.40;99.90
7030;DHT22;3556;53.500;10.176;2023-12-20T08:35:36;6.40;99.90
7030;DHT22;3556;53.500;10.176;2023-12-20T08:38:02;6.50;99.90
7030;DHT22;3556;53.500;10.176;2023-12-20T08:40:29;6.50;99.90
7030;DHT22;3556;53.500;10.176;2023-12-20T08:42:55;6.50;99.90
7030;DHT22;3556;53.500;10.176;2023-12-20T08:45:21;6.60;99.90
7030;DHT22;3556;53.500;10.176;2023-12-20T08:47:46;6.60;99.90
7030;DHT22;3556;53.500;10.176;2023-12-20T08:50:12;6.60;99.90
7030;DHT22;3556;53.500;10.176;2023-12-20T08:52:38;6.60;99.90
7030;DHT22;3556;53.500;10.176;2023-12-20T08:55:03;6.60;99.90
7030;DHT22;3556;53.500;10.176;2023-12-20T08:57:29;6.70;99.90
7030;DHT22;3556;53.500;10.176;2023-12-20T08:59:57;6.70;99.90
7030;DHT22;3556;53.500;10.176;2023-12-20T09:02:22;6.80;99.90
7030;DHT22;3556;53.500;10.176;2023-12-20T09:04:48;6.80;99.90
7030;DHT22;3556;53.500;10.176;2023-12-20T09:07:26;6.90;99.90
7030;DHT22;3556;53.500;10.176;2023-12-20T09:09:53;6.90;99.90
7030;DHT22;3556;53.500;10.176;2023-12-20T09:12:19;6.80;99.90
7030;DHT22;3556;53.500;10.176;2023-12-20T09:14:46;6.70;99.90
7030;DHT22;3556;53.500;10.176;2023-12-20T09:17:12;6.70;99.90
7030;DHT22;3556;53.500;10.176;2023-12-20T09:19:38;6.60;99.90
7030;DHT22;3556;53.500;10.176;2023-12-20T09:22:05;6.50;99.90
7030;DHT22;3556;53.500;10.176;2023-12-20T09:24:31;6.40;99.90
7030;DHT22;3556;53.500;10.176;2023-12-20T09:26:56;6.40;99.90
7030;DHT22;3556;53.500;10.176;2023-12-20T09:29:23;6.30;99.90
7030;DHT22;3556;53.500;10.176;2023-12-20T09:31:50;6.30;99.90
7030;DHT22;3556;53.500;10.176;2023-12-20T09:34:16;6.20;99.90
7030;DHT22;3556;53.500;10.176;2023-12-20T09:36:42;6.10;99.90
7030;DHT22;3556;53.500;10.176;2023-12-20T09:39:13;6.00;99.90
7030;DHT22;3556;53.500;10.176;2023-12-20T09:41:42;6.00;99.90
7030;DHT22;3556;53.500;10.176;2023-12-20T09:44:14;5.90;99.90
7030;DHT22;3556;53.500;10.176;2023-12-20T09:46:43;5.90;99.90
7030;DHT22;3556;53.500;10.176;2023-12-20T09:49:10;5.80;99.90
7030;DHT22;3556;53.500;10.176;2023-12-20T09:51:36;5.80;99.90
7030;DHT22;3556;53.500;10.176;2023-12-20T09:54:03;5.80;99.90
7030;DHT22;3556;53.500;10.176;2023-12-20T09:56:30;5.80;99.90
7030;DHT22;3556;53.500;10.176;2023-12-20T09:58:56;5.80;99.90
7030;DHT22;3556;53.500;10.176;2023-12-20T10:01:22;5.80;99.90
7030;DHT22;3556;53.500;10.176;2023-12-20T10:03:48;5.80;99.90
7030;DHT22;3556;53.500;10.176;2023-12-20T10:06:16;5.80;99.90
7030;DHT22;3556;53.500;10.176;2023-12-20T10:08:42;5.80;99.90
7030;DHT22;3556;53.500;10.176;2023-12-20T10:11:07;5.80;99.90
7030;DHT22;3556;53.500;10.176;2023-12-20T10:13:33;5.70;99.90
7030;DHT22;3556;53.500;10.176;2023-12-20T10:15:59;5.70;99.90
7030;DHT22;3556;53.500;10.176;2023-12-20T10:18:26;5.70;99.90
7030;DHT22;3556;53.500;10.176;2023-12-20T10:20:54;5.80;99.90
7030;DHT22;3556;53.500;10.176;2023-12-20T10:23:19;5.70;99.90
7030;DHT22;3556;53.500;10.176;2023-12-20T10:25:56;5.70;99.90
7030;DHT22;3556;53.500;10.176;2023-12-20T10:28:22;5.70;99.90
7030;DHT22;3556;53.500;10.176;2023-12-20T10:30:50;5.60;99.90
7030;DHT22;3556;53.500;10.176;2023-12-20T10:33:26;5.60;99.90
7030;DHT22;3556;53.500;10.176;2023-12-20T10:35:53;5.50;99.90
7030;DHT22;3556;53.500;10.176;2023-12-20T10:38:19;5.50;99.90
7030;DHT22;3556;53.500;10.176;2023-12-20T10:40:45;5.50;99.90
7030;DHT22;3556;53.500;10.176;2023-12-20T10:43:12;5.40;99.90
7030;DHT22;3556;53.500;10.176;2023-12-20T10:45:37;5.50;99.90
7030;DHT22;3556;53.500;10.176;2023-12-20T10:48:04;5.40;99.90
7030;DHT22;3556;53.500;10.176;2023-12-20T10:50:30;5.50;99.90
7030;DHT22;3556;53.500;10.176;2023-12-20T10:52:57;5.60;99.90
7030;DHT22;3556;53.500;10.176;2023-12-20T10:55:23;5.60;99.90
7030;DHT22;3556;53.500;10.176;2023-12-20T10:57:51;5.60;99.90
7030;DHT22;3556;53.500;10.176;2023-12-20T11:00:18;5.70;99.90
7030;DHT22;3556;53.500;10.176;2023-12-20T11:02:44;5.70;99.90
7030;DHT22;3556;53.500;10.176;2023-12-20T11:05:43;5.80;99.90
7030;DHT22;3556;53.500;10.176;2023-12-20T11:08:17;5.90;99.90
7030;DHT22;3556;53.500;10.176;2023-12-20T11:10:50;5.90;99.90
7030;DHT22;3556;53.500;10.176;2023-12-20T11:13:24;5.80;99.90
7030;DHT22;3556;53.500;10.176;2023-12-20T11:15:51;5.70;99.90
7030;DHT22;3556;53.500;10.176;2023-12-20T11:18:17;5.60;99.90
7030;DHT22;3556;53.500;10.176;2023-12-20T11:20:43;5.60;99.90
7030;DHT22;3556;53.500;10.176;2023-12-20T11:23:09;5.60;99.90
7030;DHT22;3556;53.500;10.176;2023-12-20T11:25:55;5.60;99.90
7030;DHT22;3556;53.500;10.176;2023-12-20T11:28:23;5.50;99.90
7030;DHT22;3556;53.500;10.176;2023-12-20T11:30:55;5.60;99.90
7030;DHT22;3556;53.500;10.176;2023-12-20T11:33:24;5.60;99.90
7030;DHT22;3556;53.500;10.176;2023-12-20T11:35:51;5.70;99.90
7030;DHT22;3556;53.500;10.176;2023-12-20T11:38:19;5.70;99.90
7030;DHT22;3556;53.500;10.176;2023-12-20T11:40:48;5.70;99.90
7030;DHT22;3556;53.500;10.176;2023-12-20T11:46:05;5.80;99.90
7030;DHT22;3556;53.500;10.176;2023-12-20T11:48:32;5.80;99.90
7030;DHT22;3556;53.500;10.176;2023-12-20T11:50:58;5.80;99.90
7030;DHT22;3556;53.500;10.176;2023-12-20T11:53:24;5.80;99.90
7030;DHT22;3556;53.500;10.176;2023-12-20T11:55:50;5.90;99.90
7030;DHT22;3556;53.500;10.176;2023-12-20T11:58:16;5.90;99.90
7030;DHT22;3556;53.500;10.176;2023-12-20T12:00:42;5.80;99.90
7030;DHT22;3556;53.500;10.176;2023-12-20T12:03:08;5.90;99.90
7030;DHT22;3556;53.500;10.176;2023-12-20T12:05:34;5.90;99.90
7030;DHT22;3556;53.500;10.176;2023-12-20T12:08:01;5.90;99.90
7030;DHT22;3556;53.500;10.176;2023-12-20T12:10:27;5.90;99.90
7030;DHT22;3556;53.500;10.176;2023-12-20T12:12:52;5.90;99.90
7030;DHT22;3556;53.500;10.176;2023-12-20T12:15:18;5.90;99.90
7030;DHT22;3556;53.500;10.176;2023-12-20T12:17:44;5.90;99.90
7030;DHT22;3556;53.500;10.176;2023-12-20T12:20:20;5.80;99.90
7030;DHT22;3556;53.500;10.176;2023-12-20T12:22:46;5.70;99.90
7030;DHT22;3556;53.500;10.176;2023-12-20T12:25:16;5.70;99.90
7030;DHT22;3556;53.500;10.176;2023-12-20T12:27:43;5.70;99.90
7030;DHT22;3556;53.500;10.176;2023-12-20T12:30:09;5.70;99.90
7030;DHT22;3556;53.500;10.176;2023-12-20T12:32:35;5.70;99.90
7030;DHT22;3556;53.500;10.176;2023-12-20T12:35:06;5.70;99.90
7030;DHT22;3556;53.500;10.176;2023-12-20T12:37:34;5.70;99.90
7030;DHT22;3556;53.500;10.176;2023-12-20T12:40:00;5.80;99.90
7030;DHT22;3556;53.500;10.176;2023-12-20T12:42:26;5.90;99.90
7030;DHT22;3556;53.500;10.176;2023-12-20T12:44:54;5.90;99.90
7030;DHT22;3556;53.500;10.176;2023-12-20T12:47:21;5.90;99.90
7030;DHT22;3556;53.500;10.176;2023-12-20T12:49:46;5.90;99.90
7030;DHT22;3556;53.500;10.176;2023-12-20T12:52:12;6.00;99.90
7030;DHT22;3556;53.500;10.176;2023-12-20T12:54:38;6.00;99.90
7030;DHT22;3556;53.500;10.176;2023-12-20T12:57:03;6.10;99.90
7030;DHT22;3556;53.500;10.176;2023-12-20T12:59:29;6.10;99.90
7030;DHT22;3556;53.500;10.176;2023-12-20T13:01:55;6.20;99.90
7030;DHT22;3556;53.500;10.176;2023-12-20T13:04:20;6.30;99.90
7030;DHT22;3556;53.500;10.176;2023-12-20T13:06:46;6.30;99.90
7030;DHT22;3556;53.500;10.176;2023-12-20T13:09:12;6.40;99.90
7030;DHT22;3556;53.500;10.176;2023-12-20T13:11:38;6.40;99.90
7030;DHT22;3556;53.500;10.176;2023-12-20T13:14:03;6.40;99.90
7030;DHT22;3556;53.500;10.176;2023-12-20T13:16:29;6.50;99.90
7030;DHT22;3556;53.500;10.176;2023-12-20T13:18:55;6.50;98.00
7030;DHT22;3556;53.500;10.176;2023-12-20T13:21:21;6.50;62.30
7030;DHT22;3556;53.500;10.176;2023-12-20T13:23:47;6.50;55.90
7030;DHT22;3556;53.500;10.176;2023-12-20T13:26:12;6.40;16.00
7030;DHT22;3556;53.500;10.176;2023-12-20T13:28:38;6.40;15.90
7030;DHT22;3556;53.500;10.176;2023-12-20T13:31:03;6.30;22.00
7030;DHT22;3556;53.500;10.176;2023-12-20T13:33:29;6.40;1.00
7030;DHT22;3556;53.500;10.176;2023-12-20T13:35:55;6.40;1.00
7030;DHT22;3556;53.500;10.176;2023-12-20T13:38:21;6.30;1.00
7030;DHT22;3556;53.500;10.176;2023-12-20T13:40:47;6.30;2.40
7030;DHT22;3556;53.500;10.176;2023-12-20T13:43:13;6.30;1.00
7030;DHT22;3556;53.500;10.176;2023-12-20T13:45:39;6.20;1.00
7030;DHT22;3556;53.500;10.176;2023-12-20T13:48:05;6.10;1.00
7030;DHT22;3556;53.500;10.176;2023-12-20T13:50:30;6.10;18.50
7030;DHT22;3556;53.500;10.176;2023-12-20T13:52:56;6.00;13.40
7030;DHT22;3556;53.500;10.176;2023-12-20T13:55:22;6.10;38.60
7030;DHT22;3556;53.500;10.176;2023-12-20T13:57:51;6.00;53.50
7030;DHT22;3556;53.500;10.176;2023-12-20T14:00:16;6.00;54.70
7030;DHT22;3556;53.500;10.176;2023-12-20T14:02:42;5.90;76.50
7030;DHT22;3556;53.500;10.176;2023-12-20T14:05:08;5.90;90.00
7030;DHT22;3556;53.500;10.176;2023-12-20T14:07:34;5.90;99.90
7030;DHT22;3556;53.500;10.176;2023-12-20T14:10:00;5.90;99.90
7030;DHT22;3556;53.500;10.176;2023-12-20T14:12:26;5.90;99.90
7030;DHT22;3556;53.500;10.176;2023-12-20T14:14:51;5.90;99.90
7030;DHT22;3556;53.500;10.176;2023-12-20T14:17:17;5.90;99.90
7030;DHT22;3556;53.500;10.176;2023-12-20T14:19:43;6.00;99.90
7030;DHT22;3556;53.500;10.176;2023-12-20T14:22:09;6.00;99.90
7030;DHT22;3556;53.500;10.176;2023-12-20T14:24:35;6.00;99.90
7030;DHT22;3556;53.500;10.176;2023-12-20T14:27:01;6.10;77.50
7030;DHT22;3556;53.500;10.176;2023-12-20T14:29:27;6.10;73.20
7030;DHT22;3556;53.500;10.176;2023-12-20T14:31:53;6.10;71.40
7030;DHT22;3556;53.500;10.176;2023-12-20T14:34:18;6.10;37.60
7030;DHT22;3556;53.500;10.176;2023-12-20T14:36:44;6.10;19.10
7030;DHT22;3556;53.500;10.176;2023-12-20T14:39:09;6.10;1.00
7030;DHT22;3556;53.500;10.176;2023-12-20T14:41:38;6.10;16.90
7030;DHT22;3556;53.500;10.176;2023-12-20T14:44:05;6.00;1.00
7030;DHT22;3556;53.500;10.176;2023-12-20T14:46:31;6.10;1.00
7030;DHT22;3556;53.500;10.176;2023-12-20T14:48:56;6.00;1.00
7030;DHT22;3556;53.500;10.176;2023-12-20T14:51:22;6.00;11.90
7030;DHT22;3556;53.500;10.176;2023-12-20T14:53:48;6.00;6.80
7030;DHT22;3556;53.500;10.176;2023-12-20T14:56:14;6.00;1.00
7030;DHT22;3556;53.500;10.176;2023-12-20T14:58:40;5.90;1.00
7030;DHT22;3556;53.500;10.176;2023-12-20T15:01:05;5.90;1.00
7030;DHT22;3556;53.500;10.176;2023-12-20T15:03:34;5.90;1.80
7030;DHT22;3556;53.500;10.176;2023-12-20T15:06:00;5.80;1.00
7030;DHT22;3556;53.500;10.176;2023-12-20T15:08:26;5.80;1.00
7030;DHT22;3556;53.500;10.176;2023-12-20T15:10:52;5.80;1.00
7030;DHT22;3556;53.500;10.176;2023-12-20T15:13:17;5.80;1.00
7030;DHT22;3556;53.500;10.176;2023-12-20T15:15:43;5.70;1.00
7030;DHT22;3556;53.500;10.176;2023-12-20T15:18:09;5.70;1.00
7030;DHT22;3556;53.500;10.176;2023-12-20T15:20:35;5.60;1.00
7030;DHT22;3556;53.500;10.176;2023-12-20T15:23:02;5.60;1.90
7030;DHT22;3556;53.500;10.176;2023-12-20T15:25:32;5.50;19.20
7030;DHT22;3556;53.500;10.176;2023-12-20T15:27:57;5.50;34.70
7030;DHT22;3556;53.500;10.176;2023-12-20T15:30:23;5.50;66.60
7030;DHT22;3556;53.500;10.176;2023-12-20T15:32:50;5.50;85.80
7030;DHT22;3556;53.500;10.176;2023-12-20T15:35:16;5.40;97.00
7030;DHT22;3556;53.500;10.176;2023-12-20T15:37:42;5.40;99.90
7030;DHT22;3556;53.500;10.176;2023-12-20T15:40:08;5.40;99.90
7030;DHT22;3556;53.500;10.176;2023-12-20T15:42:39;5.30;99.90
7030;DHT22;3556;53.500;10.176;2023-12-20T15:45:06;5.30;99.90
7030;DHT22;3556;53.500;10.176;2023-12-20T15:47:33;5.30;99.90
7030;DHT22;3556;53.500;10.176;2023-12-20T15:49:58;5.30;99.90
7030;DHT22;3556;53.500;10.176;2023-12-20T15:52:24;5.30;99.90
7030;DHT22;3556;53.500;10.176;2023-12-20T15:54:49;5.20;99.90
7030;DHT22;3556;53.500;10.176;2023-12-20T15:57:15;5.20;99.90